Time;durP1;ratioP1;P1;durP2;ratioP2;P2;SDS_P1;SDS_P2;PMS_P1;PMS_P2;Temp;Humidity;BMP_temperature;BMP_pressure;BME280_temperature;BME280_humidity;BME280_pressure;Samples;Min_cycle;Max_cycle;Signal;HPM_P1;HPM_P2
2022/10/15 00:01:26;;;;;;;0.80;0.30;;;14.40;99.90;;;13.83;100.00;95582.72;6206486;23;20016;-67
2022/10/15 00:03:53;;;;;;;3.50;0.32;;;14.50;99.90;;;13.89;100.00;95545.66;6206632;23;20013;-68
2022/10/15 00:06:20;;;;;;;1.70;0.30;;;14.50;99.90;;;13.90;100.00;95529.06;6205409;23;20031;-68
2022/10/15 00:08:47;;;;;;;0.95;0.30;;;14.50;99.90;;;13.96;100.00;95528.50;6206454;23;20020;-67
2022/10/15 00:11:21;;;;;;;0.70;0.30;;;14.50;99.90;;;13.96;100.00;95543.34;6205555;23;20021;-67
2022/10/15 00:13:49;;;;;;;1.77;0.28;;;14.50;99.90;;;13.98;100.00;95541.41;6207600;23;20025;-67
2022/10/15 00:16:20;;;;;;;1.23;0.20;;;14.60;99.90;;;13.94;100.00;95558.31;6206786;23;20131;-68
2022/10/15 00:18:48;;;;;;;4.85;0.20;;;14.60;99.90;;;13.98;100.00;95557.91;6206180;23;20028;-67
2022/10/15 00:21:18;;;;;;;1.30;0.20;;;14.60;99.90;;;14.02;100.00;95563.66;6205396;23;20021;-67
2022/10/15 00:23:46;;;;;;;0.22;0.10;;;14.60;99.90;;;14.07;100.00;95571.06;6204255;23;20025;-68
2022/10/15 00:26:17;;;;;;;7.68;0.20;;;14.60;99.90;;;14.05;100.00;95566.00;6205711;23;20127;-67
2022/10/15 00:28:45;;;;;;;0.38;0.20;;;14.60;99.90;;;14.07;100.00;95569.31;6205142;23;20399;-67
2022/10/15 00:31:15;;;;;;;1.27;0.30;;;14.60;99.90;;;14.07;100.00;95568.47;6205804;23;20024;-67
2022/10/15 00:33:44;;;;;;;1.15;0.20;;;14.70;99.90;;;14.11;100.00;95560.22;6206593;23;20028;-68
2022/10/15 00:36:17;;;;;;;0.40;0.30;;;14.60;99.90;;;14.12;100.00;95564.50;6203800;23;20060;-68
2022/10/15 00:38:45;;;;;;;0.57;0.30;;;14.70;99.90;;;14.14;100.00;95556.50;6205789;23;20047;-68
2022/10/15 00:41:27;;;;;;;3.33;0.50;;;14.70;99.90;;;14.18;100.00;95566.53;6206553;23;20021;-67
2022/10/15 00:44:00;;;;;;;1.70;0.40;;;14.70;99.90;;;14.18;100.00;95579.59;6207691;23;20040;-68
2022/10/15 00:46:41;;;;;;;2.30;0.40;;;14.70;99.90;;;14.22;100.00;95582.75;6206170;23;20263;-68
2022/10/15 00:49:39;;;;;;;2.90;0.30;;;14.70;99.90;;;14.28;100.00;95591.81;6202631;23;20032;-68
2022/10/15 00:52:16;;;;;;;3.30;0.75;;;14.70;99.90;;;14.21;100.00;95592.38;6203590;23;20021;-68
2022/10/15 00:54:55;;;;;;;2.17;0.32;;;14.80;99.90;;;14.24;100.00;95601.72;6205129;23;20020;-67
2022/10/15 00:57:24;;;;;;;0.40;0.30;;;14.80;99.90;;;14.26;100.00;95601.59;6207215;23;20225;-67
2022/10/15 00:59:56;;;;;;;0.30;0.30;;;14.80;99.90;;;14.26;100.00;95593.75;6205597;23;20024;-67
2022/10/15 01:02:23;;;;;;;0.40;0.30;;;14.80;99.90;;;14.20;100.00;95598.53;6206013;23;20387;-67
2022/10/15 01:04:52;;;;;;;0.40;0.30;;;14.80;99.90;;;14.26;100.00;95588.53;6205432;23;20603;-68
2022/10/15 01:07:19;;;;;;;0.68;0.30;;;14.80;99.90;;;14.27;100.00;95595.41;6207502;23;20021;-67
2022/10/15 01:09:46;;;;;;;1.00;0.30;;;14.90;99.90;;;14.27;100.00;95598.81;6206388;23;20034;-68
2022/10/15 01:12:36;;;;;;;3.20;2.17;;;14.90;99.90;;;14.34;100.00;95601.72;6204914;23;20055;-68
2022/10/15 01:15:19;;;;;;;0.50;0.32;;;14.90;99.90;;;14.31;100.00;95610.66;6205652;23;20025;-68
2022/10/15 01:17:54;;;;;;;8.02;4.22;;;14.90;99.90;;;14.30;100.00;95601.19;6204870;23;20032;-69
2022/10/15 01:20:53;;;;;;;0.30;0.20;;;14.90;99.90;;;14.35;100.00;95578.09;6207036;23;20021;-68
2022/10/15 01:23:52;;;;;;;8.18;3.22;;;14.90;99.90;;;14.33;100.00;95566.97;6205779;23;20476;-68
2022/10/15 01:26:34;;;;;;;7.72;3.45;;;14.90;99.90;;;14.31;100.00;95549.81;6205064;23;20072;-68
2022/10/15 01:29:16;;;;;;;4.75;2.08;;;14.90;99.90;;;14.30;100.00;95551.59;6206133;23;20024;-68
2022/10/15 01:32:16;;;;;;;3.88;1.60;;;14.90;99.90;;;14.32;100.00;95554.06;6206310;23;20025;-68
2022/10/15 01:34:53;;;;;;;11.95;6.30;;;14.90;99.90;;;14.34;100.00;95539.91;6205469;23;20400;-68
2022/10/15 01:37:36;;;;;;;20.42;9.93;;;15.00;99.90;;;14.39;100.00;95540.31;6206492;23;20047;-68
2022/10/15 01:40:33;;;;;;;1.20;0.60;;;15.00;99.90;;;14.39;100.00;95537.72;6205610;23;20028;-68
2022/10/15 01:43:03;;;;;;;1.60;0.80;;;15.00;99.90;;;14.38;100.00;95545.69;6206237;23;20476;-68
2022/10/15 01:45:40;;;;;;;1.30;0.60;;;15.00;99.90;;;14.38;100.00;95558.72;6206103;23;20016;-68
2022/10/15 01:48:11;;;;;;;0.30;0.22;;;15.00;99.90;;;14.42;100.00;95550.47;6205062;23;20025;-68
2022/10/15 01:50:48;;;;;;;0.60;0.47;;;15.10;99.90;;;14.46;100.00;95547.59;6205493;23;20020;-68
2022/10/15 01:53:25;;;;;;;2.10;0.43;;;15.10;99.90;;;14.44;100.00;95552.97;6204205;23;20020;-68
2022/10/15 01:56:01;;;;;;;0.75;0.30;;;15.10;99.90;;;14.42;100.00;95549.66;6205212;23;20028;-68
2022/10/15 01:58:29;;;;;;;3.33;0.50;;;15.10;99.90;;;14.40;100.00;95551.59;6203545;23;20101;-68
2022/10/15 02:00:58;;;;;;;0.20;0.20;;;15.10;99.90;;;14.49;100.00;95552.53;6204616;23;20353;-68
2022/10/15 02:03:25;;;;;;;0.30;0.20;;;15.10;99.90;;;14.46;100.00;95569.31;6203381;23;20032;-68
2022/10/15 02:06:14;;;;;;;0.75;0.30;;;15.10;99.90;;;14.49;100.00;95566.41;6206188;23;20020;-68
2022/10/15 02:08:52;;;;;;;0.20;0.20;;;15.10;99.90;;;14.53;100.00;95559.09;6205452;23;20029;-68
2022/10/15 02:11:19;;;;;;;0.35;0.20;;;15.10;99.90;;;14.52;100.00;95563.50;6205781;23;20039;-68
2022/10/15 02:14:13;;;;;;;0.20;0.13;;;15.10;99.90;;;14.54;100.00;95566.00;6205490;23;20031;-67
2022/10/15 02:16:48;;;;;;;0.93;0.20;;;15.10;99.90;;;14.54;100.00;95566.00;6206196;23;20032;-69
2022/10/15 02:19:31;;;;;;;0.22;0.20;;;15.10;99.90;;;14.63;100.00;95567.81;6203215;23;20027;-68
2022/10/15 02:22:08;;;;;;;0.57;0.30;;;15.10;99.90;;;14.58;100.00;95581.28;6205603;23;20016;-68
2022/10/15 02:24:48;;;;;;;0.95;0.40;;;15.10;99.90;;;14.55;100.00;95575.50;6204565;23;20100;-68
2022/10/15 02:27:22;;;;;;;0.52;0.40;;;15.20;99.90;;;14.60;100.00;95579.34;6204264;23;20031;-68
2022/10/15 02:29:51;;;;;;;0.30;0.30;;;15.20;99.90;;;14.62;100.00;95582.66;6204460;23;20039;-68
2022/10/15 02:32:21;;;;;;;2.22;0.60;;;15.20;99.90;;;14.58;100.00;95598.72;6204127;23;20087;-68
2022/10/15 02:34:50;;;;;;;1.20;0.25;;;15.20;99.90;;;14.57;100.00;95602.28;6204587;23;20040;-69
2022/10/15 02:37:22;;;;;;;0.68;0.20;;;15.20;99.90;;;14.54;100.00;95599.94;6204707;23;20147;-68
2022/10/15 02:39:49;;;;;;;0.30;0.20;;;15.20;99.90;;;14.50;100.00;95604.59;6203770;23;20039;-68
2022/10/15 02:42:17;;;;;;;0.35;0.28;;;15.10;99.90;;;14.45;100.00;95609.41;6205889;23;20079;-68
2022/10/15 02:44:44;;;;;;;0.77;0.38;;;15.10;99.90;;;14.41;100.00;95608.88;6204146;23;20021;-68
2022/10/15 02:47:11;;;;;;;0.93;0.40;;;15.10;99.90;;;14.39;100.00;95607.34;6204876;23;20025;-69
2022/10/15 02:49:39;;;;;;;1.00;0.40;;;15.10;99.90;;;14.40;100.00;95594.16;6203105;23;20025;-69
2022/10/15 02:52:06;;;;;;;1.80;0.30;;;15.00;99.90;;;14.36;100.00;95597.19;6206111;23;20120;-68
2022/10/15 02:54:33;;;;;;;0.28;0.20;;;15.00;99.90;;;14.39;100.00;95602.13;6202683;23;20035;-68
2022/10/15 02:57:00;;;;;;;1.55;0.50;;;15.00;99.90;;;14.35;100.00;95603.38;6206290;23;20021;-67
2022/10/15 02:59:27;;;;;;;0.50;0.30;;;15.00;99.90;;;14.33;100.00;95597.47;6203131;23;20780;-68
2022/10/15 03:01:53;;;;;;;0.40;0.30;;;15.00;99.90;;;14.34;100.00;95586.06;6203977;23;20178;-68
2022/10/15 03:04:21;;;;;;;0.50;0.20;;;15.00;99.90;;;14.34;100.00;95588.66;6205397;23;20036;-67
2022/10/15 03:06:48;;;;;;;0.55;0.28;;;15.00;99.90;;;14.38;100.00;95597.88;6205651;23;20059;-68
2022/10/15 03:09:15;;;;;;;0.17;0.17;;;14.90;99.90;;;14.34;100.00;95612.16;6204519;23;20027;-68
2022/10/15 03:11:41;;;;;;;0.45;0.30;;;14.90;99.90;;;14.37;100.00;95617.13;6209201;23;20027;-68
2022/10/15 03:14:08;;;;;;;1.17;0.20;;;14.90;99.90;;;14.34;100.00;95630.41;6207510;23;20039;-68
2022/10/15 03:16:35;;;;;;;1.27;0.30;;;14.90;99.90;;;14.32;100.00;95648.00;6204391;23;20044;-68
2022/10/15 03:19:02;;;;;;;0.22;0.22;;;14.90;99.90;;;14.36;100.00;95652.00;6207373;23;20027;-67
2022/10/15 03:21:29;;;;;;;0.30;0.25;;;14.80;99.90;;;14.28;100.00;95670.09;6206686;23;20465;-68
2022/10/15 03:23:58;;;;;;;0.43;0.30;;;14.80;99.90;;;14.30;100.00;95673.41;6206381;23;20494;-67
2022/10/15 03:26:25;;;;;;;0.60;0.30;;;14.90;99.90;;;14.31;100.00;95680.28;6207884;23;20115;-68
2022/10/15 03:28:52;;;;;;;1.17;0.30;;;14.90;99.90;;;14.28;100.00;95680.53;6207197;23;20024;-67
2022/10/15 03:31:19;;;;;;;0.60;0.38;;;14.90;99.90;;;14.32;100.00;95681.94;6207833;23;20084;-67
2022/10/15 03:33:46;;;;;;;2.25;0.30;;;14.80;99.90;;;14.25;100.00;95689.47;6205341;23;20500;-67
2022/10/15 03:36:13;;;;;;;1.70;0.50;;;14.90;99.90;;;14.29;100.00;95685.63;6205789;23;20028;-67
2022/10/15 03:38:39;;;;;;;1.08;0.50;;;14.80;99.90;;;14.25;100.00;95689.47;6207079;23;20033;-67
2022/10/15 03:41:06;;;;;;;1.00;0.50;;;14.80;99.90;;;14.24;100.00;95695.66;6208101;23;20028;-67
2022/10/15 03:43:33;;;;;;;1.17;0.63;;;14.80;99.90;;;14.25;100.00;95712.94;6207230;23;20020;-68
2022/10/15 03:46:06;;;;;;;1.38;0.55;;;14.80;99.90;;;14.25;100.00;95741.66;6206591;23;20024;-68
2022/10/15 03:48:33;;;;;;;3.38;0.75;;;14.80;99.90;;;14.26;100.00;95740.72;6204232;23;20024;-68
2022/10/15 03:51:00;;;;;;;1.63;0.60;;;14.80;99.90;;;14.23;100.00;95738.34;6206396;23;20039;-67
2022/10/15 03:53:26;;;;;;;1.25;0.65;;;14.80;99.90;;;14.23;100.00;95707.03;6207041;23;20039;-67
2022/10/15 03:55:53;;;;;;;1.58;0.80;;;14.80;99.90;;;14.26;100.00;95679.88;6206654;23;20051;-67
2022/10/15 03:58:20;;;;;;;0.73;0.50;;;14.80;99.90;;;14.26;100.00;95664.22;6207578;23;20024;-67
2022/10/15 04:00:47;;;;;;;1.27;0.50;;;14.80;99.90;;;14.26;100.00;95656.38;6207454;23;20078;-67
2022/10/15 04:03:14;;;;;;;2.30;0.70;;;14.80;99.90;;;14.28;100.00;95686.59;6205704;23;20032;-67
2022/10/15 04:05:41;;;;;;;0.98;0.55;;;14.80;99.90;;;14.26;100.00;95682.50;6202972;23;20025;-67
2022/10/15 04:08:08;;;;;;;1.98;0.75;;;14.80;99.90;;;14.22;100.00;95692.34;6206001;23;20365;-66
2022/10/15 04:10:35;;;;;;;3.78;0.85;;;14.90;99.90;;;14.23;100.00;95678.34;6206767;23;20021;-66
2022/10/15 04:13:01;;;;;;;1.75;0.75;;;14.90;99.90;;;14.23;100.00;95670.50;6206976;23;20028;-67
2022/10/15 04:15:28;;;;;;;1.50;0.90;;;14.80;99.90;;;14.25;100.00;95681.63;6207691;23;20031;-66
2022/10/15 04:17:55;;;;;;;2.13;1.10;;;14.90;99.90;;;14.23;100.00;95684.41;6206132;23;20135;-67
2022/10/15 04:20:22;;;;;;;3.22;1.05;;;14.80;99.90;;;14.23;100.00;95683.56;6208185;23;20025;-67
2022/10/15 04:22:49;;;;;;;6.30;1.20;;;14.90;99.90;;;14.19;100.00;95685.63;6204807;23;20025;-66
2022/10/15 04:25:16;;;;;;;3.10;1.50;;;14.80;99.90;;;14.18;100.00;95677.91;6208234;23;20029;-67
2022/10/15 04:27:43;;;;;;;3.00;1.40;;;14.90;99.90;;;14.22;100.00;95659.25;6208699;23;20108;-67
2022/10/15 04:30:11;;;;;;;4.00;2.17;;;14.90;99.90;;;14.18;100.00;95647.41;6205988;23;20051;-67
2022/10/15 04:32:39;;;;;;;2.38;1.50;;;14.90;99.90;;;14.20;100.00;95642.91;6207747;23;20021;-67
2022/10/15 04:35:06;;;;;;;2.88;2.10;;;14.90;99.90;;;14.15;100.00;95636.44;6207132;23;20032;-67
2022/10/15 04:37:33;;;;;;;4.03;2.00;;;14.90;99.90;;;14.13;100.00;95639.19;6207468;23;20097;-67
2022/10/15 04:40:00;;;;;;;3.22;2.50;;;14.90;99.90;;;14.16;100.00;95628.50;6217325;23;20317;-67
2022/10/15 04:42:30;;;;;;;3.75;2.80;;;14.90;99.90;;;14.14;100.00;95637.41;6207556;23;20116;-67
2022/10/15 04:44:57;;;;;;;5.60;3.08;;;14.90;99.90;;;14.11;100.00;95635.06;6207972;23;20121;-67
2022/10/15 04:47:24;;;;;;;3.90;2.90;;;14.90;99.90;;;14.13;100.00;95625.31;6207974;23;20029;-67
2022/10/15 04:49:51;;;;;;;5.57;2.70;;;14.90;99.90;;;14.17;100.00;95614.47;6206795;23;20055;-67
2022/10/15 04:52:18;;;;;;;4.07;2.63;;;14.90;99.90;;;14.13;100.00;95639.19;6208396;23;20032;-67
2022/10/15 04:54:45;;;;;;;5.93;3.63;;;14.90;99.90;;;14.12;100.00;95639.34;6206849;23;20039;-66
2022/10/15 04:57:12;;;;;;;4.95;3.15;;;14.90;99.90;;;14.06;100.00;95643.28;6207274;23;20028;-67
2022/10/15 04:59:39;;;;;;;3.00;2.20;;;14.90;99.90;;;14.08;100.00;95643.16;6207272;23;20067;-67
2022/10/15 05:02:06;;;;;;;4.47;2.20;;;14.80;99.90;;;14.06;100.00;95637.25;6206211;23;20032;-67
2022/10/15 05:04:33;;;;;;;2.75;2.20;;;14.90;99.90;;;14.12;100.00;95628.91;6205666;23;20024;-67
2022/10/15 05:07:00;;;;;;;5.00;2.70;;;14.90;99.90;;;14.11;100.00;95635.06;6206694;23;20036;-67
2022/10/15 05:09:27;;;;;;;2.67;2.40;;;14.90;99.90;;;14.04;100.00;95642.59;6206181;23;20036;-67
2022/10/15 05:11:54;;;;;;;3.30;2.55;;;14.80;99.90;;;14.07;100.00;95658.00;6206446;23;20330;-68
2022/10/15 05:14:22;;;;;;;3.22;2.42;;;14.80;99.90;;;14.01;100.00;95643.69;6205052;23;20333;-68
2022/10/15 05:16:49;;;;;;;3.78;3.05;;;14.80;99.90;;;13.92;100.00;95639.28;6205205;23;20036;-67
2022/10/15 05:19:16;;;;;;;5.07;2.28;;;14.80;99.90;;;13.90;100.00;95645.59;6206607;23;20025;-67
2022/10/15 05:21:43;;;;;;;3.33;2.35;;;14.70;99.90;;;13.94;100.00;95637.38;6206898;23;20025;-67
2022/10/15 05:24:10;;;;;;;3.60;2.78;;;14.60;99.90;;;13.92;100.00;95649.72;6205859;23;20472;-68
2022/10/15 05:26:37;;;;;;;3.90;2.55;;;14.60;99.90;;;13.84;100.00;95648.72;6204029;23;20028;-67
2022/10/15 05:29:04;;;;;;;3.63;2.70;;;14.60;99.90;;;13.82;100.00;95646.25;6202993;23;20032;-68
2022/10/15 05:31:32;;;;;;;3.25;2.63;;;14.50;99.90;;;13.88;100.00;95652.72;6204904;23;20025;-67
2022/10/15 05:34:06;;;;;;;2.58;1.85;;;14.40;99.90;;;13.78;100.00;95663.13;6203451;23;20111;-67
2022/10/15 05:36:34;;;;;;;3.92;2.50;;;14.40;99.90;;;13.71;100.00;95662.81;6204509;23;20023;-68
2022/10/15 05:39:03;;;;;;;3.47;2.30;;;14.40;99.90;;;13.66;100.00;95658.94;6214750;23;20020;-67
2022/10/15 05:41:30;;;;;;;2.45;1.63;;;14.40;99.90;;;13.68;100.00;95644.81;6203821;23;20032;-68
2022/10/15 05:43:58;;;;;;;3.33;1.70;;;14.30;99.90;;;13.66;100.00;95665.00;6204708;23;20036;-68
2022/10/15 05:46:25;;;;;;;2.95;1.52;;;14.20;99.90;;;13.73;100.00;95645.28;6204500;23;20116;-67
2022/10/15 05:48:55;;;;;;;8.63;2.35;;;14.20;99.90;;;13.68;100.00;95663.06;6204051;23;20025;-67
2022/10/15 05:51:24;;;;;;;2.47;1.83;;;14.20;99.90;;;13.60;100.00;95668.13;6204441;23;20092;-67
2022/10/15 05:53:52;;;;;;;3.53;2.10;;;14.20;99.90;;;13.60;100.00;95681.97;6202711;23;20028;-66
2022/10/15 05:56:19;;;;;;;3.58;2.00;;;14.20;99.90;;;13.58;100.00;95672.66;6202749;23;20100;-67
2022/10/15 05:58:46;;;;;;;3.55;2.45;;;14.20;99.90;;;13.63;100.00;95677.47;6203744;23;20029;-67
2022/10/15 06:01:14;;;;;;;4.72;2.20;;;14.20;99.90;;;13.58;100.00;95672.66;6204426;23;20218;-69
2022/10/15 06:03:42;;;;;;;4.13;3.10;;;14.20;99.90;;;13.58;100.00;95683.06;6202341;23;20741;-67
2022/10/15 06:06:18;;;;;;;3.78;2.88;;;14.20;99.90;;;13.62;100.00;95676.66;6204484;23;20017;-67
2022/10/15 06:08:46;;;;;;;4.93;3.70;;;14.20;99.90;;;13.54;100.00;95674.69;6203504;23;20031;-66
2022/10/15 06:11:14;;;;;;;5.15;3.85;;;14.20;99.90;;;13.59;100.00;95672.53;6204461;23;20123;-67
2022/10/15 06:13:43;;;;;;;4.50;3.42;;;14.20;99.90;;;13.57;100.00;95679.66;6205010;23;20340;-68
2022/10/15 06:16:11;;;;;;;4.30;3.33;;;14.20;99.90;;;13.57;100.00;95694.44;6204921;23;20028;-68
2022/10/15 06:18:39;;;;;;;6.15;3.65;;;14.20;99.90;;;13.53;100.00;95703.50;6202427;23;20038;-67
2022/10/15 06:21:07;;;;;;;5.10;3.42;;;14.20;99.90;;;13.52;100.00;95697.44;6204796;23;20025;-68
2022/10/15 06:23:34;;;;;;;4.47;3.42;;;14.20;99.90;;;13.65;100.00;95694.63;6204423;23;20021;-67
2022/10/15 06:26:03;;;;;;;5.43;2.83;;;14.20;99.90;;;13.62;100.00;95691.47;6203161;23;20042;-67
2022/10/15 06:28:31;;;;;;;4.65;3.03;;;14.20;99.90;;;13.60;100.00;95695.03;6204908;23;20021;-67
2022/10/15 06:30:59;;;;;;;4.43;3.33;;;14.20;99.90;;;13.62;100.00;95694.91;6202799;23;20122;-67
2022/10/15 06:33:27;;;;;;;4.32;3.05;;;14.20;99.90;;;13.67;100.00;95697.13;6204322;23;20021;-67
2022/10/15 06:35:55;;;;;;;4.85;3.08;;;14.20;99.90;;;13.63;100.00;95701.75;6203443;23;20692;-68
2022/10/15 06:38:23;;;;;;;5.10;2.80;;;14.20;99.90;;;13.61;100.00;95708.88;6202561;23;20473;-67
2022/10/15 06:40:50;;;;;;;3.25;2.70;;;14.20;99.90;;;13.60;100.00;95705.44;6203891;23;20330;-67
2022/10/15 06:43:17;;;;;;;3.35;2.40;;;14.20;99.90;;;13.67;100.00;95703.16;6201714;23;20051;-67
2022/10/15 06:45:44;;;;;;;2.45;1.85;;;14.20;99.90;;;13.59;100.00;95702.97;6205018;23;20031;-68
2022/10/15 06:48:11;;;;;;;3.60;2.35;;;14.20;99.90;;;13.67;100.00;95704.94;6204089;23;20025;-67
2022/10/15 06:50:38;;;;;;;5.43;2.90;;;14.30;99.90;;;13.58;100.00;95717.78;6203534;23;20029;-67
2022/10/15 06:53:06;;;;;;;3.05;2.35;;;14.30;99.90;;;13.58;100.00;95709.13;6205597;23;20027;-67
2022/10/15 06:55:34;;;;;;;4.10;2.30;;;14.30;99.90;;;13.63;100.00;95706.16;6204917;23;20072;-67
2022/10/15 06:58:01;;;;;;;3.58;2.13;;;14.30;99.90;;;13.56;100.00;95711.88;6205782;23;20126;-68
2022/10/15 07:00:28;;;;;;;5.68;3.05;;;14.30;99.90;;;13.53;100.00;95722.56;6204888;23;20384;-68
2022/10/15 07:02:55;;;;;;;5.93;2.42;;;14.30;99.90;;;13.64;100.00;95724.28;6228552;23;20066;-67
2022/10/15 07:05:22;;;;;;;3.38;2.30;;;14.30;99.90;;;13.56;100.00;95724.91;6206190;23;20016;-67
2022/10/15 07:07:54;;;;;;;5.07;2.88;;;14.30;99.90;;;13.54;100.00;95726.81;6206832;23;20020;-67
2022/10/15 07:10:22;;;;;;;5.68;2.53;;;14.30;99.90;;;13.57;100.00;95736.16;6207667;23;20028;-67
2022/10/15 07:12:49;;;;;;;3.58;2.10;;;14.40;99.90;;;13.63;100.00;95733.03;6204176;23;20024;-67
2022/10/15 07:15:18;;;;;;;3.60;2.10;;;14.30;99.90;;;13.66;100.00;95724.97;6204862;23;20025;-68
2022/10/15 07:18:00;;;;;;;3.00;1.63;;;14.30;99.90;;;13.68;100.00;95719.59;6205479;23;20396;-67
2022/10/15 07:20:30;;;;;;;4.27;2.10;;;14.40;99.90;;;13.70;100.00;95728.13;6203967;23;20024;-68
2022/10/15 07:22:59;;;;;;;2.30;1.63;;;14.40;99.90;;;13.69;100.00;95731.72;6205330;23;20550;-68
2022/10/15 07:25:27;;;;;;;4.00;1.80;;;14.40;99.90;;;13.72;100.00;95726.22;6203830;23;20096;-67
2022/10/15 07:27:56;;;;;;;3.88;2.00;;;14.40;99.90;;;13.67;100.00;95736.22;6200546;23;20640;-67
2022/10/15 07:30:27;;;;;;;3.25;1.80;;;14.40;99.90;;;13.75;100.00;95726.81;6205280;23;20028;-68
2022/10/15 07:32:58;;;;;;;1.83;1.30;;;14.50;99.90;;;13.77;100.00;95724.03;6206174;23;20772;-67
2022/10/15 07:35:26;;;;;;;2.60;1.50;;;14.50;99.90;;;13.92;100.00;95719.31;6206310;23;20400;-67
2022/10/15 07:37:54;;;;;;;4.85;1.90;;;14.50;99.90;;;13.87;100.00;95722.31;6202916;23;20024;-67
2022/10/15 07:40:21;;;;;;;2.15;1.42;;;14.60;99.90;;;13.88;100.00;95721.34;6205277;23;20021;-68
2022/10/15 07:42:56;;;;;;;2.53;1.58;;;14.60;99.90;;;13.86;100.00;95731.09;6203527;23;20017;-67
2022/10/15 07:45:24;;;;;;;2.95;2.40;;;14.60;99.90;;;13.83;100.00;95728.75;6204463;23;20016;-68
2022/10/15 07:47:51;;;;;;;4.95;2.00;;;14.60;99.90;;;13.80;100.00;95731.63;6214555;23;20027;-67
2022/10/15 07:50:19;;;;;;;4.90;2.20;;;14.70;99.90;;;13.90;100.00;95729.88;6206204;23;20511;-67
2022/10/15 07:52:46;;;;;;;3.65;1.90;;;14.80;99.90;;;13.79;100.00;95735.16;6204963;23;20035;-67
2022/10/15 07:55:13;;;;;;;3.47;2.13;;;14.80;99.90;;;13.94;100.00;95722.63;6204311;23;20031;-67
2022/10/15 07:57:40;;;;;;;4.30;2.72;;;14.70;99.90;;;13.80;100.00;95716.78;6204987;23;20858;-67
2022/10/15 08:00:08;;;;;;;4.35;2.47;;;14.60;99.90;;;13.90;100.00;95729.06;6204937;23;20027;-67
2022/10/15 08:02:35;;;;;;;3.92;1.85;;;14.60;99.90;;;13.92;100.00;95733.19;6204863;23;20072;-67
2022/10/15 08:05:02;;;;;;;4.22;2.83;;;14.60;99.90;;;13.99;100.00;95731.69;6203934;23;20024;-67
2022/10/15 08:07:29;;;;;;;6.55;3.00;;;14.60;99.90;;;13.95;100.00;95734.69;6206598;23;20339;-68
2022/10/15 08:09:56;;;;;;;3.42;2.00;;;14.60;99.90;;;14.03;100.00;95729.66;6204574;23;20025;-68
2022/10/15 08:12:23;;;;;;;4.00;2.42;;;14.70;99.90;;;13.94;100.00;95738.28;6203936;23;20333;-69
2022/10/15 08:14:50;;;;;;;3.78;1.45;;;14.80;99.90;;;13.95;100.00;95732.91;6206504;23;20025;-67
2022/10/15 08:17:17;;;;;;;4.20;1.90;;;14.80;99.90;;;14.08;100.00;95729.25;6204922;23;20071;-67
2022/10/15 08:19:47;;;;;;;2.65;1.27;;;14.80;99.90;;;14.15;100.00;95722.56;6201300;23;20020;-67
2022/10/15 08:22:14;;;;;;;2.67;1.30;;;14.80;99.90;;;14.17;100.00;95724.06;6227941;23;20099;-66
2022/10/15 08:24:41;;;;;;;2.95;1.10;;;14.80;99.90;;;14.08;100.00;95731.88;6204775;23;20021;-66
2022/10/15 08:27:08;;;;;;;1.85;1.33;;;14.70;99.90;;;14.15;100.00;95730.38;6205168;23;20352;-67
2022/10/15 08:29:35;;;;;;;1.92;1.00;;;14.70;99.90;;;14.22;100.00;95734.09;6205126;23;20036;-68
2022/10/15 08:32:02;;;;;;;1.88;0.93;;;14.70;99.90;;;14.22;100.00;95729.69;6202342;23;20108;-67
2022/10/15 08:34:29;;;;;;;1.63;1.00;;;14.70;99.90;;;14.26;100.00;95740.72;6204400;23;20024;-68
2022/10/15 08:36:56;;;;;;;3.33;1.10;;;14.80;99.90;;;14.27;100.00;95739.75;6205343;23;20028;-67
2022/10/15 08:39:23;;;;;;;2.53;0.80;;;14.80;99.90;;;14.30;100.00;95734.28;6203903;23;20024;-67
2022/10/15 08:41:56;;;;;;;1.05;0.60;;;14.90;99.90;;;14.25;100.00;95739.03;6204813;23;20028;-67
2022/10/15 08:44:31;;;;;;;2.58;1.05;;;14.90;99.90;;;14.29;100.00;95739.63;6204251;23;20042;-68
2022/10/15 08:47:07;;;;;;;2.05;1.00;;;15.00;99.90;;;14.38;100.00;95750.06;6200601;23;20047;-68
2022/10/15 08:49:55;;;;;;;2.17;0.60;;;15.10;99.90;;;14.42;100.00;95755.88;6202281;23;20036;-67
2022/10/15 08:52:31;;;;;;;2.33;0.60;;;15.10;99.90;;;14.32;100.00;95747.16;6202783;23;20507;-67
2022/10/15 08:55:02;;;;;;;2.22;0.60;;;15.10;99.90;;;14.30;100.00;95764.75;6204732;23;20310;-67
2022/10/15 08:58:03;;;;;;;1.95;0.52;;;15.10;99.90;;;14.26;100.00;95758.97;6205299;23;20044;-68
2022/10/15 09:01:17;;;;;;;2.08;0.95;;;15.00;99.90;;;14.35;100.00;95757.38;6203709;23;20032;-68
2022/10/15 09:03:59;;;;;;;1.70;0.70;;;15.00;99.90;;;14.27;100.00;95778.88;6176946;23;20021;-67
2022/10/15 09:06:38;;;;;;;2.00;0.73;;;15.00;99.90;;;14.36;100.00;95749.38;6204628;23;20024;-68
2022/10/15 09:09:33;;;;;;;4.60;1.13;;;15.00;99.90;;;14.41;100.00;95762.03;6201901;23;20032;-67
2022/10/15 09:12:34;;;;;;;2.13;1.10;;;15.10;99.90;;;14.40;100.00;95763.00;6203152;23;20028;-67
2022/10/15 09:15:04;;;;;;;2.03;0.98;;;15.20;99.90;;;14.52;100.00;95737.59;6226331;23;20028;-67
2022/10/15 09:17:35;;;;;;;3.10;0.70;;;15.20;99.90;;;14.41;100.00;95755.06;6203250;23;20027;-67
2022/10/15 09:20:06;;;;;;;3.97;1.15;;;15.30;99.90;;;14.59;100.00;95750.00;6204821;23;20027;-68
2022/10/15 09:22:35;;;;;;;3.40;1.27;;;15.30;99.90;;;14.61;100.00;95745.47;6204909;23;20024;-67
2022/10/15 09:25:18;;;;;;;3.00;0.73;;;15.30;99.90;;;14.55;100.00;95748.66;6202504;23;20020;-67
2022/10/15 09:27:50;;;;;;;3.25;1.10;;;15.20;99.90;;;14.67;100.00;95745.91;6203924;23;20020;-68
2022/10/15 09:30:36;;;;;;;2.25;0.95;;;15.20;99.90;;;14.66;100.00;95729.41;6198307;23;20556;-67
2022/10/15 09:33:30;;;;;;;6.35;1.27;;;15.40;99.90;;;14.92;100.00;95728.91;6201818;23;20103;-67
2022/10/15 09:36:00;;;;;;;4.15;1.30;;;15.60;99.90;;;14.91;100.00;95727.22;6213159;23;20063;-67
2022/10/15 09:38:55;;;;;;;3.75;1.35;;;15.80;99.90;;;14.90;100.00;95742.09;6202957;23;20028;-68
2022/10/15 09:41:58;;;;;;;5.10;1.80;;;15.90;99.90;;;14.79;100.00;95737.00;6204683;23;20025;-68
2022/10/15 09:44:39;;;;;;;3.85;1.73;;;15.70;99.90;;;14.84;100.00;95737.41;6200596;23;20025;-67
2022/10/15 09:47:25;;;;;;;4.25;1.80;;;15.80;99.90;;;15.02;100.00;95743.59;6200359;23;20039;-67
2022/10/15 09:49:52;;;;;;;5.28;1.50;;;15.90;99.90;;;15.25;100.00;95744.13;6202738;23;20024;-68
2022/10/15 09:52:28;;;;;;;3.17;1.20;;;16.10;99.90;;;15.26;100.00;95763.28;6203190;23;20046;-67
2022/10/15 09:55:08;;;;;;;4.30;1.60;;;16.20;99.90;;;15.24;100.00;95760.78;6204926;23;20025;-67
2022/10/15 09:57:37;;;;;;;3.75;1.38;;;16.20;99.90;;;15.10;100.00;95781.25;6204755;23;20555;-67
2022/10/15 10:00:12;;;;;;;5.85;1.90;;;16.20;99.90;;;15.18;100.00;95781.41;6202237;23;20020;-67
2022/10/15 10:02:39;;;;;;;6.80;1.75;;;16.10;99.90;;;15.35;100.00;95783.34;6204457;23;20064;-67
2022/10/15 10:05:29;;;;;;;7.25;1.15;;;16.10;99.90;;;15.06;100.00;95794.63;6202250;23;20153;-67
2022/10/15 10:08:24;;;;;;;3.78;1.20;;;16.00;99.90;;;15.04;100.00;95806.16;6212515;23;20051;-67
2022/10/15 10:10:58;;;;;;;5.20;1.48;;;15.90;99.90;;;15.01;100.00;95807.28;6202560;23;20080;-67
2022/10/15 10:13:33;;;;;;;3.30;1.10;;;15.90;99.90;;;15.06;100.00;95823.34;6200963;23;20063;-68
2022/10/15 10:16:08;;;;;;;8.18;1.95;;;16.10;99.90;;;15.24;100.00;95812.25;6202808;23;20376;-67
2022/10/15 10:18:39;;;;;;;5.75;1.30;;;16.10;99.90;;;15.20;100.00;95829.97;6202337;23;20427;-67
2022/10/15 10:21:27;;;;;;;5.25;1.42;;;16.20;99.90;;;15.27;100.00;95812.78;6200425;23;20539;-68
2022/10/15 10:23:53;;;;;;;7.65;1.88;;;16.30;99.90;;;15.14;100.00;95803.56;6205762;23;20472;-68
2022/10/15 10:26:21;;;;;;;5.72;1.00;;;16.20;99.90;;;15.15;100.00;95807.84;6204698;23;20020;-68
2022/10/15 10:28:52;;;;;;;5.55;1.30;;;16.10;99.90;;;15.30;100.00;95806.44;6205279;23;20112;-67
2022/10/15 10:31:34;;;;;;;3.60;0.90;;;16.00;99.90;;;15.09;100.00;95803.16;6204536;23;20017;-68